createdAt,value
2023-01-13T00:01:56.666Z,3.00
2023-01-13T00:04:29.459Z,3.00
2023-01-13T00:07:08.749Z,2.99
2023-01-13T00:09:38.328Z,2.96
2023-01-13T00:12:13.534Z,2.90
2023-01-13T00:14:48.984Z,2.88
2023-01-13T00:17:23.394Z,2.88
2023-01-13T00:20:01.453Z,2.87
2023-01-13T00:22:30.895Z,2.81
2023-01-13T00:25:06.181Z,2.72
2023-01-13T00:27:42.976Z,2.69
2023-01-13T00:30:13.136Z,2.67
2023-01-13T00:32:44.873Z,2.70
2023-01-13T00:35:16.903Z,2.74
2023-01-13T00:37:51.089Z,2.77
2023-01-13T00:40:21.670Z,2.77
2023-01-13T00:43:11.289Z,2.77
2023-01-13T00:45:53.013Z,2.72
2023-01-13T00:48:24.511Z,2.70
2023-01-13T00:51:01.368Z,2.63
2023-01-13T00:53:33.349Z,2.62
2023-01-13T00:56:10.134Z,2.57
2023-01-13T00:58:44.671Z,2.54
2023-01-13T01:01:17.876Z,2.53
2023-01-13T01:03:50.155Z,2.50
2023-01-13T01:06:32.849Z,2.49
2023-01-13T01:09:07.610Z,2.56
2023-01-13T01:11:38.312Z,2.58
2023-01-13T01:14:16.892Z,2.54
2023-01-13T01:16:53.034Z,2.54
2023-01-13T01:19:24.167Z,2.56
2023-01-13T01:21:53.367Z,2.54
2023-01-13T01:24:27.268Z,2.51
2023-01-13T01:26:59.939Z,2.48
2023-01-13T01:29:35.305Z,2.53
2023-01-13T01:32:05.202Z,2.56
2023-01-13T01:34:34.572Z,2.63
2023-01-13T01:37:03.840Z,2.66
2023-01-13T01:39:39.170Z,2.69
2023-01-13T01:42:25.724Z,2.75
2023-01-13T01:45:03.896Z,2.88
2023-01-13T01:47:34.959Z,2.95
2023-01-13T01:50:11.817Z,3.00
2023-01-13T01:52:50.546Z,3.06
2023-01-13T01:55:33.695Z,3.11
2023-01-13T01:58:12.783Z,3.16
2023-01-13T02:00:49.658Z,3.19
2023-01-13T02:03:21.799Z,3.29
2023-01-13T02:05:56.723Z,3.40
2023-01-13T02:08:44.347Z,3.43
2023-01-13T02:11:50.689Z,3.46
2023-01-13T02:14:21.272Z,3.48
2023-01-13T02:17:04.466Z,3.47
2023-01-13T02:20:06.607Z,3.47
2023-01-13T02:22:52.213Z,3.46
2023-01-13T02:25:49.060Z,3.50
2023-01-13T02:28:51.337Z,3.52
2023-01-13T02:31:44.631Z,3.54
2023-01-13T02:34:18.467Z,3.50
2023-01-13T02:37:01.822Z,3.50
2023-01-13T02:39:39.021Z,3.46
2023-01-13T02:42:38.456Z,3.43
2023-01-13T02:45:17.588Z,3.42
2023-01-13T02:48:02.424Z,3.42
2023-01-13T02:50:39.225Z,3.45
2023-01-13T02:53:12.213Z,3.41
2023-01-13T02:55:46.690Z,3.42
2023-01-13T02:58:19.076Z,3.43
2023-01-13T03:00:52.509Z,3.43
2023-01-13T03:03:24.047Z,3.40
2023-01-13T03:05:55.906Z,3.38
2023-01-13T03:08:43.061Z,3.34
2023-01-13T03:11:20.669Z,3.33
2023-01-13T03:14:19.726Z,3.33
2023-01-13T03:17:26.973Z,3.34
2023-01-13T03:20:04.066Z,3.39
2023-01-13T03:22:39.258Z,3.39
2023-01-13T03:25:13.562Z,3.44
2023-01-13T03:27:49.405Z,3.51
2023-01-13T03:30:23.649Z,3.54
2023-01-13T03:33:04.399Z,3.59
2023-01-13T03:35:41.297Z,3.62
2023-01-13T03:38:16.261Z,3.66
2023-01-13T03:40:56.427Z,3.71
2023-01-13T03:43:49.601Z,3.76
2023-01-13T03:46:26.173Z,3.80
2023-01-13T03:49:01.589Z,3.82
2023-01-13T03:51:40.752Z,3.85
2023-01-13T03:54:14.388Z,3.87
2023-01-13T03:56:47.437Z,3.87
2023-01-13T03:59:27.878Z,3.91
2023-01-13T04:02:08.544Z,3.90
2023-01-13T04:04:42.457Z,3.91
2023-01-13T04:07:21.827Z,3.94
2023-01-13T04:10:03.072Z,3.96
2023-01-13T04:12:55.366Z,4.02
2023-01-13T04:15:30.839Z,4.08
2023-01-13T04:18:17.262Z,4.14
2023-01-13T04:20:48.687Z,4.18
2023-01-13T04:23:30.806Z,4.22
2023-01-13T04:25:59.877Z,4.26
2023-01-13T04:28:29.172Z,4.28
2023-01-13T04:30:58.114Z,4.29
2023-01-13T04:33:27.686Z,4.31
2023-01-13T04:35:57.440Z,4.33
2023-01-13T04:38:28.085Z,4.39
2023-01-13T04:41:05.396Z,4.42
2023-01-13T04:43:34.561Z,4.47
2023-01-13T04:46:07.027Z,4.48
2023-01-13T04:48:39.917Z,4.50
2023-01-13T04:51:10.462Z,4.55
2023-01-13T04:53:51.626Z,4.56
2023-01-13T04:56:20.846Z,4.57
2023-01-13T04:58:49.614Z,4.59
2023-01-13T05:01:23.785Z,4.62
2023-01-13T05:03:53.171Z,4.65
2023-01-13T05:06:22.336Z,4.70
2023-01-13T05:08:52.635Z,4.74
2023-01-13T05:11:38.914Z,4.75
2023-01-13T05:14:28.125Z,4.78
2023-01-13T05:17:07.722Z,4.80
2023-01-13T05:19:40.855Z,4.84
2023-01-13T05:22:33.054Z,4.86
2023-01-13T05:25:20.838Z,4.88
2023-01-13T05:27:51.795Z,4.89
2023-01-13T05:30:26.699Z,4.91
2023-01-13T05:32:58.484Z,4.92
2023-01-13T05:35:29.368Z,4.96
2023-01-13T05:38:00.849Z,5.00
2023-01-13T05:40:49.159Z,5.02
2023-01-13T05:43:23.076Z,5.07
2023-01-13T05:46:01.795Z,5.05
2023-01-13T05:48:33.588Z,5.06
2023-01-13T05:51:04.032Z,5.06
2023-01-13T05:53:35.475Z,5.05
2023-01-13T05:56:10.103Z,5.07
2023-01-13T05:58:39.537Z,5.07
2023-01-13T06:01:10.320Z,5.09
2023-01-13T06:03:42.713Z,5.12
2023-01-13T06:06:15.126Z,5.12
2023-01-13T06:08:47.134Z,5.12
2023-01-13T06:11:17.943Z,5.12
2023-01-13T06:13:49.257Z,5.19
2023-01-13T06:16:21.437Z,5.23
2023-01-13T06:18:53.953Z,5.27
2023-01-13T06:21:28.608Z,5.35
2023-01-13T06:24:01.222Z,5.40
2023-01-13T06:26:40.289Z,5.46
2023-01-13T06:29:18.133Z,5.48
2023-01-13T06:31:49.034Z,5.50
2023-01-13T06:34:24.789Z,5.53
2023-01-13T06:36:56.578Z,5.55
2023-01-13T06:39:32.217Z,5.56
2023-01-13T06:42:22.275Z,5.56
2023-01-13T06:44:55.359Z,5.65
2023-01-13T06:47:37.195Z,5.71
2023-01-13T06:50:06.945Z,5.74
2023-01-13T06:52:43.647Z,5.79
2023-01-13T06:55:13.170Z,5.81
2023-01-13T06:57:58.491Z,5.85
2023-01-13T07:00:32.640Z,5.90
2023-01-13T07:03:17.552Z,5.92
2023-01-13T07:05:56.965Z,6.00
2023-01-13T07:08:26.748Z,6.05
2023-01-13T07:11:03.791Z,6.12
2023-01-13T07:13:54.144Z,6.17
2023-01-13T07:16:25.160Z,6.17
2023-01-13T07:18:59.900Z,6.24
2023-01-13T07:21:29.384Z,6.29
2023-01-13T07:24:00.960Z,6.36
2023-01-13T07:26:38.523Z,6.36
2023-01-13T07:29:15.507Z,6.45
2023-01-13T07:31:50.485Z,6.41
2023-01-13T07:34:20.429Z,6.50
2023-01-13T07:36:51.993Z,6.55
2023-01-13T07:39:21.666Z,6.59
2023-01-13T07:42:08.490Z,6.58
2023-01-13T07:44:42.068Z,6.65
2023-01-13T07:47:13.955Z,6.66
2023-01-13T07:49:49.982Z,6.70
2023-01-13T07:52:26.973Z,6.75
2023-01-13T07:54:59.297Z,6.78
2023-01-13T07:57:33.458Z,6.82
2023-01-13T08:00:12.858Z,6.84
2023-01-13T08:02:47.087Z,6.89
2023-01-13T08:05:21.167Z,6.91
2023-01-13T08:07:53.290Z,6.93
2023-01-13T08:10:22.552Z,6.91
2023-01-13T08:13:12.164Z,6.90
2023-01-13T08:15:45.973Z,6.90
2023-01-13T08:18:15.799Z,6.89
2023-01-13T08:20:50.128Z,6.95
2023-01-13T08:23:20.236Z,6.96
2023-01-13T08:25:57.062Z,6.99
2023-01-13T08:28:29.816Z,7.01
2023-01-13T08:31:03.018Z,7.03
2023-01-13T08:33:36.768Z,7.03
2023-01-13T08:36:19.624Z,7.03
2023-01-13T08:38:52.503Z,7.03
2023-01-13T08:41:43.808Z,7.01
2023-01-13T08:44:25.443Z,7.04
2023-01-13T08:47:03.704Z,7.04
2023-01-13T08:49:38.331Z,7.04
2023-01-13T08:52:09.570Z,7.06
2023-01-13T08:54:45.005Z,7.06
2023-01-13T08:57:20.218Z,7.05
2023-01-13T08:59:51.570Z,7.08
2023-01-13T09:02:26.460Z,7.08
2023-01-13T09:04:56.238Z,7.01
2023-01-13T09:07:28.510Z,7.10
2023-01-13T09:10:07.599Z,7.13
2023-01-13T09:12:57.663Z,7.15
2023-01-13T09:15:27.383Z,7.21
2023-01-13T09:18:01.205Z,7.25
2023-01-13T09:20:30.303Z,7.27
2023-01-13T09:22:59.403Z,7.27
2023-01-13T09:25:28.957Z,7.28
2023-01-13T09:27:58.871Z,7.30
2023-01-13T09:30:29.701Z,7.31
2023-01-13T09:33:15.126Z,7.33
2023-01-13T09:35:45.703Z,7.34
2023-01-13T09:38:18.277Z,7.36
2023-01-13T09:40:50.592Z,7.36
2023-01-13T09:43:40.537Z,7.42
2023-01-13T09:46:33.723Z,7.45
2023-01-13T09:49:08.417Z,7.43
2023-01-13T09:51:46.104Z,7.55
2023-01-13T09:54:22.903Z,7.58
2023-01-13T09:56:58.652Z,7.56
2023-01-13T09:59:38.791Z,7.57
2023-01-13T10:02:33.679Z,7.57
2023-01-13T10:05:17.040Z,7.50
2023-01-13T10:07:55.614Z,7.58
2023-01-13T10:10:39.437Z,7.58
2023-01-13T10:13:20.494Z,7.55
2023-01-13T10:15:57.877Z,7.55
2023-01-13T10:18:37.470Z,7.54
2023-01-13T10:21:47.145Z,7.58
2023-01-13T10:24:23.165Z,7.59
2023-01-13T10:27:13.583Z,7.56
2023-01-13T10:29:42.767Z,7.52
2023-01-13T10:32:12.425Z,7.55
2023-01-13T10:34:51.378Z,7.53
2023-01-13T10:37:27.674Z,7.55
2023-01-13T10:40:02.067Z,7.53
2023-01-13T10:42:33.925Z,7.52
2023-01-13T10:45:07.336Z,7.47
2023-01-13T10:47:38.452Z,7.40
2023-01-13T10:50:28.577Z,7.42
2023-01-13T10:53:01.762Z,7.37
2023-01-13T10:55:33.546Z,7.32
2023-01-13T10:58:16.065Z,7.36
2023-01-13T11:00:45.656Z,7.36
2023-01-13T11:03:25.608Z,7.37
2023-01-13T11:05:56.895Z,7.37
2023-01-13T11:08:30.454Z,7.36
2023-01-13T11:11:02.205Z,7.36
2023-01-13T11:13:37.310Z,7.37
2023-01-13T11:16:14.637Z,7.37
2023-01-13T11:19:02.818Z,7.41
2023-01-13T11:21:36.576Z,7.45
2023-01-13T11:24:16.660Z,7.42
2023-01-13T11:26:50.459Z,7.43
2023-01-13T11:29:26.809Z,7.38
2023-01-13T11:32:02.341Z,7.44
2023-01-13T11:34:37.533Z,7.55
2023-01-13T11:37:21.386Z,7.65
2023-01-13T11:39:58.411Z,7.74
2023-01-13T11:42:32.265Z,7.80
2023-01-13T11:45:17.310Z,7.87
2023-01-13T11:47:52.567Z,7.90
2023-01-13T11:50:34.314Z,7.93
2023-01-13T11:53:22.145Z,8.00
2023-01-13T11:56:08.956Z,8.04
2023-01-13T11:59:00.361Z,8.05
2023-01-13T12:01:40.650Z,8.15
2023-01-13T12:04:33.074Z,8.19
2023-01-13T12:07:15.689Z,8.23
2023-01-13T12:10:03.954Z,8.27
2023-01-13T12:12:51.503Z,8.29
2023-01-13T12:16:13.853Z,8.26
2023-01-13T12:19:26.627Z,8.24
2023-01-13T12:22:14.105Z,8.19
2023-01-13T12:24:54.450Z,8.27
2023-01-13T12:27:31.370Z,8.32
2023-01-13T12:30:06.055Z,8.37
2023-01-13T12:32:42.430Z,8.40
2023-01-13T12:35:38.181Z,8.44
2023-01-13T12:38:17.638Z,8.43
2023-01-13T12:40:58.032Z,8.46
2023-01-13T12:43:48.778Z,8.44
2023-01-13T12:46:57.989Z,8.48
2023-01-13T12:49:32.435Z,8.51
2023-01-13T12:52:20.199Z,8.51
2023-01-13T12:55:24.862Z,8.46
2023-01-13T12:58:04.386Z,8.48
2023-01-13T13:00:43.654Z,8.55
2023-01-13T13:03:40.191Z,8.52
2023-01-13T13:06:27.678Z,8.50
2023-01-13T13:09:04.482Z,8.47
2023-01-13T13:12:03.308Z,8.47
2023-01-13T13:15:20.940Z,8.46
2023-01-13T13:18:32.600Z,8.45
2023-01-13T13:21:13.585Z,8.39
2023-01-13T13:24:12.072Z,8.47
2023-01-13T13:26:47.047Z,8.45
2023-01-13T13:29:48.814Z,8.44
2023-01-13T13:32:59.680Z,8.33
2023-01-13T13:35:54.261Z,8.30
2023-01-13T13:38:50.535Z,8.25
2023-01-13T13:41:44.746Z,8.21
2023-01-13T13:44:35.683Z,8.20
2023-01-13T13:47:11.555Z,8.19
2023-01-13T13:49:51.958Z,8.17
2023-01-13T13:52:26.563Z,8.12
2023-01-13T13:55:08.791Z,8.13
2023-01-13T13:57:50.695Z,8.06
2023-01-13T14:00:27.276Z,8.06
2023-01-13T14:03:02.600Z,7.99
2023-01-13T14:05:41.622Z,8.00
2023-01-13T14:08:19.270Z,7.96
2023-01-13T14:10:56.357Z,7.98
2023-01-13T14:13:31.291Z,7.92
2023-01-13T14:16:06.978Z,7.85
2023-01-13T14:18:47.122Z,7.87
2023-01-13T14:21:28.671Z,7.81
2023-01-13T14:24:00.793Z,7.76
2023-01-13T14:26:33.194Z,7.74
2023-01-13T14:29:10.372Z,7.73
2023-01-13T14:31:41.273Z,7.72
2023-01-13T14:34:32.136Z,7.71
2023-01-13T14:37:10.740Z,7.66
2023-01-13T14:39:42.738Z,7.70
2023-01-13T14:42:18.806Z,7.69
2023-01-13T14:44:56.452Z,7.65
2023-01-13T14:47:32.936Z,7.68
2023-01-13T14:50:06.143Z,7.70
2023-01-13T14:52:37.675Z,7.69
2023-01-13T14:55:26.899Z,7.68
2023-01-13T14:58:31.266Z,7.69
2023-01-13T15:01:32.900Z,7.71
2023-01-13T15:04:27.866Z,7.69
2023-01-13T15:06:59.038Z,7.67
2023-01-13T15:09:35.675Z,7.63
2023-01-13T15:12:21.817Z,7.59
2023-01-13T15:14:57.307Z,7.60
2023-01-13T15:17:32.352Z,7.60
2023-01-13T15:20:02.813Z,7.56
2023-01-13T15:22:43.463Z,7.52
2023-01-13T15:25:14.176Z,7.56
2023-01-13T15:27:48.364Z,7.53
2023-01-13T15:30:24.014Z,7.54
2023-01-13T15:32:59.758Z,7.51
2023-01-13T15:35:30.652Z,7.49
2023-01-13T15:38:04.314Z,7.52
2023-01-13T15:40:37.772Z,7.53
2023-01-13T15:43:24.132Z,7.53
2023-01-13T15:46:20.499Z,7.54
2023-01-13T15:48:53.131Z,7.53
2023-01-13T15:51:27.017Z,7.54
2023-01-13T15:54:16.863Z,7.52
2023-01-13T15:56:48.684Z,7.49
2023-01-13T15:59:21.091Z,7.45
2023-01-13T16:01:51.803Z,7.46
2023-01-13T16:04:24.097Z,7.45
2023-01-13T16:06:56.242Z,7.43
2023-01-13T16:09:26.733Z,7.43
2023-01-13T16:11:55.880Z,7.49
2023-01-13T16:14:25.163Z,7.49
2023-01-13T16:17:00.379Z,7.49
2023-01-13T16:19:39.557Z,7.50
2023-01-13T16:22:14.447Z,7.51
2023-01-13T16:24:52.702Z,7.53
2023-01-13T16:27:27.633Z,7.52
2023-01-13T16:30:00.433Z,7.54
2023-01-13T16:32:33.812Z,7.56
2023-01-13T16:35:06.980Z,7.57
2023-01-13T16:37:42.213Z,7.57
2023-01-13T16:40:24.628Z,7.56
2023-01-13T16:42:57.364Z,7.57
2023-01-13T16:45:36.172Z,7.57
2023-01-13T16:48:22.753Z,7.57
2023-01-13T16:50:52.056Z,7.58
2023-01-13T16:53:23.504Z,7.59
2023-01-13T16:56:05.273Z,7.57
2023-01-13T16:58:37.324Z,7.57
2023-01-13T17:01:12.664Z,7.56
2023-01-13T17:03:49.896Z,7.55
2023-01-13T17:06:25.743Z,7.52
2023-01-13T17:09:05.764Z,7.53
2023-01-13T17:11:35.798Z,7.50
2023-01-13T17:14:20.969Z,7.55
2023-01-13T17:16:54.687Z,7.52
2023-01-13T17:19:29.128Z,7.53
2023-01-13T17:21:59.648Z,7.54
2023-01-13T17:24:33.948Z,7.57
2023-01-13T17:27:07.054Z,7.59
2023-01-13T17:29:36.643Z,7.61
2023-01-13T17:32:13.352Z,7.61
2023-01-13T17:34:53.151Z,7.62
2023-01-13T17:37:35.574Z,7.62
2023-01-13T17:40:12.940Z,7.64
2023-01-13T17:42:42.976Z,7.67
2023-01-13T17:45:17.700Z,7.67
2023-01-13T17:47:51.062Z,7.69
2023-01-13T17:50:24.896Z,7.69
2023-01-13T17:52:55.992Z,7.66
2023-01-13T17:55:25.592Z,7.65
2023-01-13T17:57:55.022Z,7.65
2023-01-13T18:00:30.222Z,7.64
2023-01-13T18:03:05.078Z,7.61
2023-01-13T18:05:52.132Z,7.65
2023-01-13T18:08:27.801Z,7.67
2023-01-13T18:11:00.540Z,7.68
2023-01-13T18:13:30.002Z,7.72
2023-01-13T18:16:04.665Z,7.73
2023-01-13T18:18:35.721Z,7.75
2023-01-13T18:21:34.800Z,7.76
2023-01-13T18:24:21.164Z,7.75
2023-01-13T18:27:08.019Z,7.76
2023-01-13T18:29:38.979Z,7.78
2023-01-13T18:32:12.286Z,7.78
2023-01-13T18:34:44.383Z,7.74
2023-01-13T18:37:16.604Z,7.75
2023-01-13T18:39:45.946Z,7.73
2023-01-13T18:42:32.750Z,7.72
2023-01-13T18:45:02.302Z,7.74
2023-01-13T18:47:35.657Z,7.75
2023-01-13T18:50:05.191Z,7.79
2023-01-13T18:52:40.770Z,7.82
2023-01-13T18:55:13.569Z,7.81
2023-01-13T18:57:43.066Z,7.82
2023-01-13T19:00:17.017Z,7.87
2023-01-13T19:02:47.352Z,7.86
2023-01-13T19:05:16.552Z,7.86
2023-01-13T19:07:52.552Z,7.88
2023-01-13T19:10:28.001Z,7.87
2023-01-13T19:13:00.259Z,7.85
2023-01-13T19:15:32.049Z,7.85
2023-01-13T19:18:03.836Z,7.84
2023-01-13T19:20:35.688Z,7.81
2023-01-13T19:23:06.605Z,7.81
2023-01-13T19:25:36.464Z,7.78
2023-01-13T19:28:05.829Z,7.76
2023-01-13T19:30:37.542Z,7.77
2023-01-13T19:33:10.710Z,7.78
2023-01-13T19:35:39.723Z,7.77
2023-01-13T19:38:16.589Z,7.73
2023-01-13T19:40:55.932Z,7.74
2023-01-13T19:43:45.266Z,7.74
2023-01-13T19:46:18.165Z,7.81
2023-01-13T19:48:50.381Z,7.79
2023-01-13T19:51:21.725Z,7.79
2023-01-13T19:53:56.250Z,7.75
2023-01-13T19:56:29.935Z,7.71
2023-01-13T19:59:05.173Z,7.64
2023-01-13T20:01:37.866Z,7.64
2023-01-13T20:04:14.169Z,7.61
2023-01-13T20:06:48.321Z,7.58
2023-01-13T20:09:19.391Z,7.56
2023-01-13T20:12:15.352Z,7.55
2023-01-13T20:14:45.382Z,7.57
2023-01-13T20:17:23.765Z,7.57
2023-01-13T20:19:55.701Z,7.63
2023-01-13T20:22:30.447Z,7.68
2023-01-13T20:25:02.514Z,7.73
2023-01-13T20:27:34.090Z,7.79
2023-01-13T20:30:05.890Z,7.81
2023-01-13T20:32:37.209Z,7.88
2023-01-13T20:35:08.403Z,7.96
2023-01-13T20:37:44.105Z,8.00
2023-01-13T20:40:21.869Z,7.94
2023-01-13T20:42:55.318Z,7.96
2023-01-13T20:45:29.722Z,7.93
2023-01-13T20:48:01.263Z,7.91
2023-01-13T20:50:32.994Z,7.88
2023-01-13T20:53:04.733Z,7.84
2023-01-13T20:55:39.125Z,7.80
2023-01-13T20:58:11.027Z,7.77
2023-01-13T21:00:52.392Z,7.75
2023-01-13T21:03:23.505Z,7.74
2023-01-13T21:05:56.574Z,7.69
2023-01-13T21:08:32.846Z,7.69
2023-01-13T21:11:10.802Z,7.67
2023-01-13T21:13:59.043Z,7.66
2023-01-13T21:16:30.597Z,7.65
2023-01-13T21:19:07.655Z,7.63
2023-01-13T21:21:37.999Z,7.61
2023-01-13T21:24:08.180Z,7.61
2023-01-13T21:26:43.584Z,7.58
2023-01-13T21:29:14.556Z,7.55
2023-01-13T21:31:49.055Z,7.56
2023-01-13T21:34:23.892Z,7.55
2023-01-13T21:36:53.184Z,7.61
2023-01-13T21:39:28.794Z,7.59
2023-01-13T21:42:20.836Z,7.61
2023-01-13T21:45:09.748Z,7.64
2023-01-13T21:47:57.549Z,7.64
2023-01-13T21:50:30.805Z,7.68
2023-01-13T21:53:00.821Z,7.68
2023-01-13T21:55:30.231Z,7.72
2023-01-13T21:58:02.538Z,7.70
2023-01-13T22:00:33.320Z,7.75
2023-01-13T22:03:04.614Z,7.76
2023-01-13T22:05:33.235Z,7.76
2023-01-13T22:08:01.911Z,7.77
2023-01-13T22:10:34.200Z,7.75
2023-01-13T22:13:20.157Z,7.79
2023-01-13T22:15:50.136Z,7.81
2023-01-13T22:18:19.735Z,7.81
2023-01-13T22:20:50.069Z,7.80
2023-01-13T22:23:21.542Z,7.80
2023-01-13T22:25:51.460Z,7.80
2023-01-13T22:28:25.464Z,7.81
2023-01-13T22:30:54.715Z,7.79
2023-01-13T22:33:29.033Z,7.79
2023-01-13T22:35:58.258Z,7.78
2023-01-13T22:38:27.440Z,7.77
2023-01-13T22:41:03.214Z,7.72
2023-01-13T22:43:36.855Z,7.73
2023-01-13T22:46:08.223Z,7.69
2023-01-13T22:48:43.535Z,7.70
2023-01-13T22:51:18.911Z,7.69
2023-01-13T22:53:49.221Z,7.68
2023-01-13T22:56:27.926Z,7.66
2023-01-13T22:59:00.560Z,7.64
2023-01-13T23:01:34.371Z,7.58
2023-01-13T23:04:07.822Z,7.61
2023-01-13T23:06:37.244Z,7.62
2023-01-13T23:09:12.510Z,7.61
2023-01-13T23:11:47.931Z,7.58
2023-01-13T23:14:20.779Z,7.53
2023-01-13T23:16:50.253Z,7.49
2023-01-13T23:19:27.374Z,7.49
2023-01-13T23:21:59.216Z,7.48
2023-01-13T23:28:23.908Z,7.45
2023-01-13T23:30:55.024Z,7.43
2023-01-13T23:33:27.288Z,7.44
2023-01-13T23:36:00.724Z,7.40
2023-01-13T23:42:11.990Z,7.39
2023-01-13T23:44:41.013Z,7.35
2023-01-13T23:47:22.093Z,7.32
2023-01-13T23:50:02.263Z,7.33
2023-01-13T23:52:31.395Z,7.32
2023-01-13T23:55:07.766Z,7.28
2023-01-13T23:57:36.955Z,7.25
